sensor_id;sensor_type;location;lat;lon;timestamp;pressure;altitude;pressure_sealevel;temperature;humidity
23281;BME280;11809;56.390;-3.266;2023-02-01T00:00:56;100654.59;;;14.91;50.89
23281;BME280;11809;56.390;-3.266;2023-02-01T00:03:23;100652.22;;;14.87;51.02
23281;BME280;11809;56.390;-3.266;2023-02-01T00:05:57;100642.56;;;14.86;50.97
23281;BME280;11809;56.390;-3.266;2023-02-01T00:08:25;100639.16;;;14.84;51.07
23281;BME280;11809;56.390;-3.266;2023-02-01T00:11:00;100640.19;;;14.81;51.04
23281;BME280;11809;56.390;-3.266;2023-02-01T00:13:29;100636.78;;;14.79;51.28
23281;BME280;11809;56.390;-3.266;2023-02-01T00:16:24;100637.03;;;14.75;51.29
23281;BME280;11809;56.390;-3.266;2023-02-01T00:18:56;100638.84;;;14.74;51.22
23281;BME280;11809;56.390;-3.266;2023-02-01T00:21:24;100647.78;;;14.72;51.35
23281;BME280;11809;56.390;-3.266;2023-02-01T00:23:51;100633.78;;;14.70;51.51
23281;BME280;11809;56.390;-3.266;2023-02-01T00:26:41;100632.28;;;14.66;51.49
23281;BME280;11809;56.390;-3.266;2023-02-01T00:29:12;100625.38;;;14.63;51.68
23281;BME280;11809;56.390;-3.266;2023-02-01T00:31:39;100648.31;;;14.63;51.48
23281;BME280;11809;56.390;-3.266;2023-02-01T00:34:07;100672.19;;;14.61;51.77
23281;BME280;11809;56.390;-3.266;2023-02-01T00:36:35;100653.09;;;14.56;51.45
23281;BME280;11809;56.390;-3.266;2023-02-01T00:39:02;100680.34;;;14.58;51.77
23281;BME280;11809;56.390;-3.266;2023-02-01T00:41:29;100689.19;;;14.57;51.90
23281;BME280;11809;56.390;-3.266;2023-02-01T00:43:56;100665.38;;;14.57;51.58
23281;BME280;11809;56.390;-3.266;2023-02-01T00:46:23;100669.06;;;14.54;51.86
23281;BME280;11809;56.390;-3.266;2023-02-01T00:48:50;100656.88;;;14.52;51.82
23281;BME280;11809;56.390;-3.266;2023-02-01T00:51:20;100663.84;;;14.53;51.94
23281;BME280;11809;56.390;-3.266;2023-02-01T00:53:48;100637.59;;;14.50;51.87
23281;BME280;11809;56.390;-3.266;2023-02-01T00:56:15;100638.41;;;14.50;51.83
23281;BME280;11809;56.390;-3.266;2023-02-01T00:58:43;100630.59;;;14.49;51.89
23281;BME280;11809;56.390;-3.266;2023-02-01T01:01:16;100628.88;;;14.48;51.88
23281;BME280;11809;56.390;-3.266;2023-02-01T01:03:55;100617.63;;;14.44;52.04
23281;BME280;11809;56.390;-3.266;2023-02-01T01:06:25;100597.50;;;14.42;52.03
23281;BME280;11809;56.390;-3.266;2023-02-01T01:08:53;100598.28;;;14.44;52.12
23281;BME280;11809;56.390;-3.266;2023-02-01T01:11:23;100592.22;;;14.42;52.36
23281;BME280;11809;56.390;-3.266;2023-02-01T01:13:51;100586.94;;;14.42;52.43
23281;BME280;11809;56.390;-3.266;2023-02-01T01:16:19;100582.47;;;14.42;52.19
23281;BME280;11809;56.390;-3.266;2023-02-01T01:18:47;100571.91;;;14.42;52.38
23281;BME280;11809;56.390;-3.266;2023-02-01T01:21:15;100564.94;;;14.41;52.49
23281;BME280;11809;56.390;-3.266;2023-02-01T01:23:43;100587.88;;;14.41;52.22
23281;BME280;11809;56.390;-3.266;2023-02-01T01:26:22;100587.09;;;14.39;52.38
23281;BME280;11809;56.390;-3.266;2023-02-01T01:28:50;100590.59;;;14.39;52.37
23281;BME280;11809;56.390;-3.266;2023-02-01T01:31:19;100602.97;;;14.39;52.39
23281;BME280;11809;56.390;-3.266;2023-02-01T01:33:54;100601.25;;;14.38;52.36
23281;BME280;11809;56.390;-3.266;2023-02-01T01:36:21;100584.53;;;14.37;52.41
23281;BME280;11809;56.390;-3.266;2023-02-01T01:38:48;100579.34;;;14.36;52.66
23281;BME280;11809;56.390;-3.266;2023-02-01T01:41:18;100583.00;;;14.33;52.57
23281;BME280;11809;56.390;-3.266;2023-02-01T01:46:16;100569.88;;;14.32;52.67
23281;BME280;11809;56.390;-3.266;2023-02-01T01:48:44;100566.22;;;14.34;52.50
23281;BME280;11809;56.390;-3.266;2023-02-01T01:51:14;100570.66;;;14.34;52.63
23281;BME280;11809;56.390;-3.266;2023-02-01T01:53:50;100581.22;;;14.34;52.85
23281;BME280;11809;56.390;-3.266;2023-02-01T01:56:21;100584.72;;;14.34;52.73
23281;BME280;11809;56.390;-3.266;2023-02-01T01:58:48;100592.72;;;14.33;52.95
23281;BME280;11809;56.390;-3.266;2023-02-01T02:01:16;100590.09;;;14.33;52.87
23281;BME280;11809;56.390;-3.266;2023-02-01T02:03:44;100584.91;;;14.31;52.90
23281;BME280;11809;56.390;-3.266;2023-02-01T02:06:25;100581.38;;;14.31;53.17
23281;BME280;11809;56.390;-3.266;2023-02-01T02:08:54;100569.03;;;14.31;52.79
23281;BME280;11809;56.390;-3.266;2023-02-01T02:11:21;100573.38;;;14.32;53.01
23281;BME280;11809;56.390;-3.266;2023-02-01T02:13:50;100559.28;;;14.32;52.96
23281;BME280;11809;56.390;-3.266;2023-02-01T02:25:38;100519.63;;;14.32;52.96
23281;BME280;11809;56.390;-3.266;2023-02-01T02:45:44;100475.63;;;14.31;53.34
23281;BME280;11809;56.390;-3.266;2023-02-01T02:48:45;100454.41;;;14.32;53.40
23281;BME280;11809;56.390;-3.266;2023-02-01T02:51:33;100459.69;;;14.32;53.40
23281;BME280;11809;56.390;-3.266;2023-02-01T02:54:27;100458.84;;;14.32;53.33
23281;BME280;11809;56.390;-3.266;2023-02-01T02:57:43;100445.63;;;14.32;53.32
23281;BME280;11809;56.390;-3.266;2023-02-01T03:00:31;100459.63;;;14.34;53.28
23281;BME280;11809;56.390;-3.266;2023-02-01T03:03:17;100453.47;;;14.33;53.33
23281;BME280;11809;56.390;-3.266;2023-02-01T03:06:03;100454.41;;;14.32;53.54
23281;BME280;11809;56.390;-3.266;2023-02-01T03:08:32;100456.97;;;14.34;53.63
23281;BME280;11809;56.390;-3.266;2023-02-01T03:11:05;100450.84;;;14.33;53.42
23281;BME280;11809;56.390;-3.266;2023-02-01T03:16:40;100456.97;;;14.34;53.45
23281;BME280;11809;56.390;-3.266;2023-02-01T03:19:43;100455.25;;;14.33;53.81
23281;BME280;11809;56.390;-3.266;2023-02-01T03:22:24;100460.56;;;14.33;53.40
23281;BME280;11809;56.390;-3.266;2023-02-01T03:25:01;100451.69;;;14.34;53.50
23281;BME280;11809;56.390;-3.266;2023-02-01T03:27:41;100463.13;;;14.34;53.52
23281;BME280;11809;56.390;-3.266;2023-02-01T03:30:19;100464.81;;;14.35;53.87
23281;BME280;11809;56.390;-3.266;2023-02-01T03:32:50;100477.09;;;14.36;53.73
23281;BME280;11809;56.390;-3.266;2023-02-01T03:46:33;100502.50;;;14.39;53.35
23281;BME280;11809;56.390;-3.266;2023-02-01T03:49:06;100504.19;;;14.40;53.70
23281;BME280;11809;56.390;-3.266;2023-02-01T03:51:37;100506.81;;;14.40;53.63
23281;BME280;11809;56.390;-3.266;2023-02-01T03:54:06;100511.28;;;14.39;53.56
23281;BME280;11809;56.390;-3.266;2023-02-01T03:56:38;100505.91;;;14.41;53.79
23281;BME280;11809;56.390;-3.266;2023-02-01T03:59:08;100498.81;;;14.41;53.48
23281;BME280;11809;56.390;-3.266;2023-02-01T04:01:35;100509.31;;;14.43;53.67
23281;BME280;11809;56.390;-3.266;2023-02-01T04:04:02;100510.09;;;14.45;53.52
23281;BME280;11809;56.390;-3.266;2023-02-01T04:06:29;100506.59;;;14.44;53.41
23281;BME280;11809;56.390;-3.266;2023-02-01T04:08:56;100504.81;;;14.45;53.58
23281;BME280;11809;56.390;-3.266;2023-02-01T04:11:22;100509.13;;;14.46;53.83
23281;BME280;11809;56.390;-3.266;2023-02-01T04:13:49;100509.13;;;14.46;53.76
23281;BME280;11809;56.390;-3.266;2023-02-01T04:16:16;100503.78;;;14.47;53.72
23281;BME280;11809;56.390;-3.266;2023-02-01T04:18:43;100515.28;;;14.46;53.77
23281;BME280;11809;56.390;-3.266;2023-02-01T04:21:10;100518.78;;;14.47;53.87
23281;BME280;11809;56.390;-3.266;2023-02-01T04:23:37;100534.53;;;14.48;53.62
23281;BME280;11809;56.390;-3.266;2023-02-01T04:26:04;100532.00;;;14.47;53.18
23281;BME280;11809;56.390;-3.266;2023-02-01T04:28:31;100537.28;;;14.47;53.67
23281;BME280;11809;56.390;-3.266;2023-02-01T04:30:58;100538.97;;;14.48;53.87
23281;BME280;11809;56.390;-3.266;2023-02-01T04:33:25;100544.25;;;14.48;53.89
23281;BME280;11809;56.390;-3.266;2023-02-01T04:35:52;100540.78;;;14.47;53.86
23281;BME280;11809;56.390;-3.266;2023-02-01T04:38:19;100546.72;;;14.51;53.76
23281;BME280;11809;56.390;-3.266;2023-02-01T04:40:47;100540.50;;;14.52;53.72
23281;BME280;11809;56.390;-3.266;2023-02-01T04:43:15;100536.91;;;14.53;53.81
23281;BME280;11809;56.390;-3.266;2023-02-01T04:45:49;100549.38;;;14.51;53.86
23281;BME280;11809;56.390;-3.266;2023-02-01T04:48:17;100546.56;;;14.54;53.72
23281;BME280;11809;56.390;-3.266;2023-02-01T04:50:48;100554.50;;;14.54;53.93
23281;BME280;11809;56.390;-3.266;2023-02-01T04:53:15;100557.13;;;14.54;53.73
23281;BME280;11809;56.390;-3.266;2023-02-01T04:55:43;100552.78;;;14.53;53.74
23281;BME280;11809;56.390;-3.266;2023-02-01T04:58:10;100560.63;;;14.54;53.59
23281;BME280;11809;56.390;-3.266;2023-02-01T05:00:37;100570.34;;;14.54;53.73
23281;BME280;11809;56.390;-3.266;2023-02-01T05:03:04;100565.81;;;14.56;53.90
23281;BME280;11809;56.390;-3.266;2023-02-01T05:05:31;100569.31;;;14.56;53.86
23281;BME280;11809;56.390;-3.266;2023-02-01T05:07:58;100566.78;;;14.55;53.74
23281;BME280;11809;56.390;-3.266;2023-02-01T05:10:25;100577.19;;;14.58;53.93
23281;BME280;11809;56.390;-3.266;2023-02-01T05:12:52;100580.75;;;14.57;53.61
23281;BME280;11809;56.390;-3.266;2023-02-01T05:15:37;100595.59;;;14.60;54.00
23281;BME280;11809;56.390;-3.266;2023-02-01T05:18:04;100603.63;;;14.58;53.94
23281;BME280;11809;56.390;-3.266;2023-02-01T05:20:31;100596.47;;;14.60;53.72
23281;BME280;11809;56.390;-3.266;2023-02-01T05:22:58;100613.19;;;14.61;53.72
23281;BME280;11809;56.390;-3.266;2023-02-01T05:25:25;100614.97;;;14.60;53.92
23281;BME280;11809;56.390;-3.266;2023-02-01T05:27:53;100628.09;;;14.62;53.70
23281;BME280;11809;56.390;-3.266;2023-02-01T05:30:20;100627.22;;;14.61;53.93
23281;BME280;11809;56.390;-3.266;2023-02-01T05:32:52;100626.31;;;14.62;53.99
23281;BME280;11809;56.390;-3.266;2023-02-01T05:35:19;100624.53;;;14.63;53.94
23281;BME280;11809;56.390;-3.266;2023-02-01T05:37:46;100621.88;;;14.63;53.70
23281;BME280;11809;56.390;-3.266;2023-02-01T05:40:12;100640.88;;;14.69;53.92
23281;BME280;11809;56.390;-3.266;2023-02-01T05:42:39;100638.75;;;14.76;53.88
23281;BME280;11809;56.390;-3.266;2023-02-01T05:45:07;100641.13;;;14.80;53.87
23281;BME280;11809;56.390;-3.266;2023-02-01T05:47:34;100635.66;;;14.83;53.45
23281;BME280;11809;56.390;-3.266;2023-02-01T05:50:02;100632.72;;;14.88;53.54
23281;BME280;11809;56.390;-3.266;2023-02-01T05:52:29;100644.34;;;14.85;53.58
23281;BME280;11809;56.390;-3.266;2023-02-01T05:54:56;100635.94;;;14.79;53.54
23281;BME280;11809;56.390;-3.266;2023-02-01T05:57:23;100642.91;;;14.80;53.29
23281;BME280;11809;56.390;-3.266;2023-02-01T05:59:50;100646.41;;;14.80;53.88
23281;BME280;11809;56.390;-3.266;2023-02-01T06:02:17;100642.84;;;14.81;53.69
23281;BME280;11809;56.390;-3.266;2023-02-01T06:04:44;100657.69;;;14.84;53.75
23281;BME280;11809;56.390;-3.266;2023-02-01T06:07:10;100654.94;;;14.85;54.17
23281;BME280;11809;56.390;-3.266;2023-02-01T06:09:38;100653.06;;;14.87;54.05
23281;BME280;11809;56.390;-3.266;2023-02-01T06:12:05;100662.69;;;14.88;54.08
23281;BME280;11809;56.390;-3.266;2023-02-01T06:14:32;100660.63;;;14.93;54.29
23281;BME280;11809;56.390;-3.266;2023-02-01T06:16:59;100659.59;;;14.96;54.53
23281;BME280;11809;56.390;-3.266;2023-02-01T06:19:26;100660.47;;;14.96;54.55
23281;BME280;11809;56.390;-3.266;2023-02-01T06:21:53;100662.00;;;15.00;54.48
23281;BME280;11809;56.390;-3.266;2023-02-01T06:24:20;100667.03;;;15.05;54.78
23281;BME280;11809;56.390;-3.266;2023-02-01T06:26:46;100654.47;;;15.08;54.65
23281;BME280;11809;56.390;-3.266;2023-02-01T06:29:13;100668.34;;;15.12;54.90
23281;BME280;11809;56.390;-3.266;2023-02-01T06:31:40;100669.22;;;15.12;54.95
23281;BME280;11809;56.390;-3.266;2023-02-01T06:34:09;100669.16;;;15.14;55.03
23281;BME280;11809;56.390;-3.266;2023-02-01T06:36:36;100669.72;;;15.19;55.02
23281;BME280;11809;56.390;-3.266;2023-02-01T06:39:03;100679.09;;;15.25;55.00
23281;BME280;11809;56.390;-3.266;2023-02-01T06:41:30;100686.00;;;15.27;54.70
23281;BME280;11809;56.390;-3.266;2023-02-01T06:43:57;100684.97;;;15.30;54.59
23281;BME280;11809;56.390;-3.266;2023-02-01T06:46:24;100691.03;;;15.32;54.63
23281;BME280;11809;56.390;-3.266;2023-02-01T06:48:51;100697.94;;;15.34;54.55
23281;BME280;11809;56.390;-3.266;2023-02-01T06:51:24;100691.72;;;15.35;54.40
23281;BME280;11809;56.390;-3.266;2023-02-01T06:53:51;100697.75;;;15.37;54.38
23281;BME280;11809;56.390;-3.266;2023-02-01T06:56:18;100705.53;;;15.40;54.14
23281;BME280;11809;56.390;-3.266;2023-02-01T06:58:46;100708.06;;;15.42;53.93
23281;BME280;11809;56.390;-3.266;2023-02-01T07:01:14;100719.44;;;15.44;54.08
23281;BME280;11809;56.390;-3.266;2023-02-01T07:03:41;100699.19;;;15.43;53.89
23281;BME280;11809;56.390;-3.266;2023-02-01T07:06:09;100697.31;;;15.45;53.80
23281;BME280;11809;56.390;-3.266;2023-02-01T07:08:37;100699.06;;;15.46;53.88
23281;BME280;11809;56.390;-3.266;2023-02-01T07:11:12;100701.34;;;15.36;50.54
23281;BME280;11809;56.390;-3.266;2023-02-01T07:13:40;100705.34;;;15.13;48.53
23281;BME280;11809;56.390;-3.266;2023-02-01T07:16:11;100709.81;;;14.97;48.00
23281;BME280;11809;56.390;-3.266;2023-02-01T07:18:39;100720.50;;;14.80;47.82
23281;BME280;11809;56.390;-3.266;2023-02-01T07:21:06;100734.84;;;14.76;47.86
23281;BME280;11809;56.390;-3.266;2023-02-01T07:23:33;100732.84;;;14.64;47.12
23281;BME280;11809;56.390;-3.266;2023-02-01T07:26:02;100733.44;;;14.53;46.77
23281;BME280;11809;56.390;-3.266;2023-02-01T07:28:32;100746.50;;;14.41;46.93
23281;BME280;11809;56.390;-3.266;2023-02-01T07:31:07;100743.00;;;14.56;49.01
23281;BME280;11809;56.390;-3.266;2023-02-01T07:33:35;100740.63;;;14.67;50.39
23281;BME280;11809;56.390;-3.266;2023-02-01T07:36:04;100737.72;;;14.72;51.24
23281;BME280;11809;56.390;-3.266;2023-02-01T07:38:32;100745.59;;;14.73;51.62
23281;BME280;11809;56.390;-3.266;2023-02-01T07:41:03;100738.41;;;14.75;52.67
23281;BME280;11809;56.390;-3.266;2023-02-01T07:43:31;100738.41;;;14.75;52.99
23281;BME280;11809;56.390;-3.266;2023-02-01T07:46:00;100749.00;;;14.75;53.20
23281;BME280;11809;56.390;-3.266;2023-02-01T07:48:28;100745.59;;;14.73;53.45
23281;BME280;11809;56.390;-3.266;2023-02-01T07:51:07;100750.03;;;14.73;53.53
23281;BME280;11809;56.390;-3.266;2023-02-01T07:53:35;100759.56;;;14.75;53.64
23281;BME280;11809;56.390;-3.266;2023-02-01T07:56:03;100751.75;;;14.74;53.75
23281;BME280;11809;56.390;-3.266;2023-02-01T07:58:30;100759.75;;;14.72;54.06
23281;BME280;11809;56.390;-3.266;2023-02-01T08:00:57;100758.81;;;14.73;53.94
23281;BME280;11809;56.390;-3.266;2023-02-01T08:03:43;100751.91;;;14.71;53.99
23281;BME280;11809;56.390;-3.266;2023-02-01T08:06:10;100752.78;;;14.71;53.87
23281;BME280;11809;56.390;-3.266;2023-02-01T08:08:37;100754.72;;;14.68;53.89
23281;BME280;11809;56.390;-3.266;2023-02-01T08:11:05;100758.22;;;14.68;54.10
23281;BME280;11809;56.390;-3.266;2023-02-01T08:13:34;100761.78;;;14.67;54.09
23281;BME280;11809;56.390;-3.266;2023-02-01T08:16:04;100766.16;;;14.68;54.14
23281;BME280;11809;56.390;-3.266;2023-02-01T08:18:33;100777.66;;;14.67;53.95
23281;BME280;11809;56.390;-3.266;2023-02-01T08:21:05;100780.41;;;14.66;54.16
23281;BME280;11809;56.390;-3.266;2023-02-01T08:23:33;100779.53;;;14.65;54.11
23281;BME280;11809;56.390;-3.266;2023-02-01T08:26:15;100784.75;;;14.67;54.23
23281;BME280;11809;56.390;-3.266;2023-02-01T08:28:46;100787.38;;;14.67;54.31
23281;BME280;11809;56.390;-3.266;2023-02-01T08:31:15;100783.91;;;14.66;54.31
23281;BME280;11809;56.390;-3.266;2023-02-01T08:33:44;100785.59;;;14.67;54.08
23281;BME280;11809;56.390;-3.266;2023-02-01T08:36:14;100789.97;;;14.68;54.07
23281;BME280;11809;56.390;-3.266;2023-02-01T08:38:41;100802.44;;;14.66;54.02
23281;BME280;11809;56.390;-3.266;2023-02-01T08:41:13;100794.50;;;14.66;54.21
23281;BME280;11809;56.390;-3.266;2023-02-01T08:43:41;100810.38;;;14.66;54.30
23281;BME280;11809;56.390;-3.266;2023-02-01T08:46:08;100803.44;;;14.64;54.18
23281;BME280;11809;56.390;-3.266;2023-02-01T08:48:36;100807.72;;;14.66;54.32
23281;BME280;11809;56.390;-3.266;2023-02-01T08:51:06;100817.44;;;14.66;54.40
23281;BME280;11809;56.390;-3.266;2023-02-01T08:53:33;100828.09;;;14.64;54.10
23281;BME280;11809;56.390;-3.266;2023-02-01T08:56:00;100835.97;;;14.66;54.41
23281;BME280;11809;56.390;-3.266;2023-02-01T08:58:28;100832.53;;;14.64;54.20
23281;BME280;11809;56.390;-3.266;2023-02-01T09:00:55;100843.88;;;14.66;54.35
23281;BME280;11809;56.390;-3.266;2023-02-01T09:03:22;100840.38;;;14.65;54.16
23281;BME280;11809;56.390;-3.266;2023-02-01T09:05:49;100836.03;;;14.64;54.20
23281;BME280;11809;56.390;-3.266;2023-02-01T09:08:18;100837.75;;;14.65;54.20
23281;BME280;11809;56.390;-3.266;2023-02-01T09:10:46;100839.63;;;14.63;54.44
23281;BME280;11809;56.390;-3.266;2023-02-01T09:13:13;100840.47;;;14.64;54.24
23281;BME280;11809;56.390;-3.266;2023-02-01T09:15:40;100842.31;;;14.62;54.29
23281;BME280;11809;56.390;-3.266;2023-02-01T09:18:07;100838.00;;;14.61;54.38
23281;BME280;11809;56.390;-3.266;2023-02-01T09:20:36;100851.13;;;14.62;54.21
23281;BME280;11809;56.390;-3.266;2023-02-01T09:23:04;100841.66;;;14.58;54.49
23281;BME280;11809;56.390;-3.266;2023-02-01T09:25:33;100855.66;;;14.60;54.27
23281;BME280;11809;56.390;-3.266;2023-02-01T09:28:00;100848.63;;;14.59;54.42
23281;BME280;11809;56.390;-3.266;2023-02-01T09:30:27;100849.50;;;14.60;54.23
23281;BME280;11809;56.390;-3.266;2023-02-01T09:32:56;100855.66;;;14.60;54.12
23281;BME280;11809;56.390;-3.266;2023-02-01T09:35:23;100863.59;;;14.60;54.26
23281;BME280;11809;56.390;-3.266;2023-02-01T09:37:52;100859.22;;;14.59;54.23
23281;BME280;11809;56.390;-3.266;2023-02-01T09:40:20;100863.75;;;14.57;54.41
23281;BME280;11809;56.390;-3.266;2023-02-01T09:45:33;100882.25;;;14.57;54.46
23281;BME280;11809;56.390;-3.266;2023-02-01T09:48:09;100880.53;;;14.56;53.99
23281;BME280;11809;56.390;-3.266;2023-02-01T09:50:41;100891.91;;;14.58;54.14
23281;BME280;11809;56.390;-3.266;2023-02-01T09:53:20;100902.56;;;14.56;54.33
23281;BME280;11809;56.390;-3.266;2023-02-01T09:55:50;100892.06;;;14.55;54.25
23281;BME280;11809;56.390;-3.266;2023-02-01T09:58:24;100900.88;;;14.55;54.41
23281;BME280;11809;56.390;-3.266;2023-02-01T10:00:59;100895.63;;;14.54;54.23
23281;BME280;11809;56.390;-3.266;2023-02-01T10:03:29;100898.28;;;14.54;54.31
23281;BME280;11809;56.390;-3.266;2023-02-01T10:22:43;100930.13;;;14.52;54.47
23281;BME280;11809;56.390;-3.266;2023-02-01T10:25:58;100933.69;;;14.51;54.18
23281;BME280;11809;56.390;-3.266;2023-02-01T10:28:32;100932.91;;;14.49;54.19
23281;BME280;11809;56.390;-3.266;2023-02-01T10:31:01;100942.63;;;14.49;53.97
23281;BME280;11809;56.390;-3.266;2023-02-01T10:33:39;100945.28;;;14.49;54.13
23281;BME280;11809;56.390;-3.266;2023-02-01T10:36:50;100949.63;;;14.50;54.25
23281;BME280;11809;56.390;-3.266;2023-02-01T10:39:19;100942.53;;;14.50;54.50
23281;BME280;11809;56.390;-3.266;2023-02-01T10:41:46;100956.63;;;14.51;54.31
23281;BME280;11809;56.390;-3.266;2023-02-01T10:44:15;100949.63;;;14.50;54.19
23281;BME280;11809;56.390;-3.266;2023-02-01T10:46:43;100960.22;;;14.50;54.45
23281;BME280;11809;56.390;-3.266;2023-02-01T10:49:18;100966.34;;;14.50;54.49
23281;BME280;11809;56.390;-3.266;2023-02-01T10:52:05;100965.50;;;14.50;54.27
23281;BME280;11809;56.390;-3.266;2023-02-01T10:54:36;100962.78;;;14.51;54.43
23281;BME280;11809;56.390;-3.266;2023-02-01T10:57:23;100966.34;;;14.50;54.50
23281;BME280;11809;56.390;-3.266;2023-02-01T10:59:56;100972.50;;;14.51;54.51
23281;BME280;11809;56.390;-3.266;2023-02-01T11:02:27;100973.50;;;14.48;54.42
23281;BME280;11809;56.390;-3.266;2023-02-01T11:05:03;100977.16;;;14.46;54.52
23281;BME280;11809;56.390;-3.266;2023-02-01T11:07:32;100970.94;;;14.47;54.26
23281;BME280;11809;56.390;-3.266;2023-02-01T11:09:59;100976.22;;;14.47;54.26
23281;BME280;11809;56.390;-3.266;2023-02-01T11:12:37;100983.31;;;14.46;54.12
23281;BME280;11809;56.390;-3.266;2023-02-01T11:15:22;100990.38;;;14.46;54.40
23281;BME280;11809;56.390;-3.266;2023-02-01T11:17:51;100986.97;;;14.44;54.43
23281;BME280;11809;56.390;-3.266;2023-02-01T11:20:46;100992.16;;;14.45;54.44
23281;BME280;11809;56.390;-3.266;2023-02-01T11:23:27;100993.13;;;14.44;54.50
23281;BME280;11809;56.390;-3.266;2023-02-01T11:26:00;100991.34;;;14.45;54.48
23281;BME280;11809;56.390;-3.266;2023-02-01T11:28:33;100989.50;;;14.45;54.14
23281;BME280;11809;56.390;-3.266;2023-02-01T11:31:04;100991.38;;;14.43;54.44
23281;BME280;11809;56.390;-3.266;2023-02-01T11:33:35;100995.81;;;14.43;54.44
23281;BME280;11809;56.390;-3.266;2023-02-01T11:36:14;100998.41;;;14.44;54.23
23281;BME280;11809;56.390;-3.266;2023-02-01T11:44:33;100994.94;;;14.42;54.33
23281;BME280;11809;56.390;-3.266;2023-02-01T11:47:31;100993.16;;;14.43;54.04
23281;BME280;11809;56.390;-3.266;2023-02-01T11:50:00;101003.75;;;14.43;54.22
23281;BME280;11809;56.390;-3.266;2023-02-01T12:06:08;100997.84;;;14.38;53.90
23281;BME280;11809;56.390;-3.266;2023-02-01T12:11:45;101014.47;;;14.40;53.86
23281;BME280;11809;56.390;-3.266;2023-02-01T12:14:40;101010.06;;;14.40;54.02
23281;BME280;11809;56.390;-3.266;2023-02-01T12:38:48;100988.50;;;14.48;53.57
23281;BME280;11809;56.390;-3.266;2023-02-01T12:41:37;100986.88;;;14.45;53.66
23281;BME280;11809;56.390;-3.266;2023-02-01T12:47:21;100992.00;;;14.48;53.26
23281;BME280;11809;56.390;-3.266;2023-02-01T12:52:40;100972.63;;;14.48;53.17
23281;BME280;11809;56.390;-3.266;2023-02-01T12:58:14;100978.09;;;14.45;53.19
23281;BME280;11809;56.390;-3.266;2023-02-01T13:00:47;100978.03;;;14.46;53.04
23281;BME280;11809;56.390;-3.266;2023-02-01T13:11:37;100976.22;;;14.47;53.10
23281;BME280;11809;56.390;-3.266;2023-02-01T13:14:48;100981.53;;;14.47;52.98
23281;BME280;11809;56.390;-3.266;2023-02-01T13:17:26;100970.09;;;14.46;53.24
23281;BME280;11809;56.390;-3.266;2023-02-01T13:22:32;100978.88;;;14.47;53.32
23281;BME280;11809;56.390;-3.266;2023-02-01T13:25:04;100978.94;;;14.45;53.15
23281;BME280;11809;56.390;-3.266;2023-02-01T13:27:34;100983.22;;;14.48;53.27
23281;BME280;11809;56.390;-3.266;2023-02-01T13:30:12;100986.81;;;14.47;53.29
23281;BME280;11809;56.390;-3.266;2023-02-01T13:38:20;100984.16;;;14.47;53.16
23281;BME280;11809;56.390;-3.266;2023-02-01T13:43:53;100985.09;;;14.46;53.05
23281;BME280;11809;56.390;-3.266;2023-02-01T13:46:22;100985.84;;;14.48;53.06
23281;BME280;11809;56.390;-3.266;2023-02-01T13:48:59;100983.22;;;14.48;53.25
23281;BME280;11809;56.390;-3.266;2023-02-01T13:51:44;100976.22;;;14.47;53.20
23281;BME280;11809;56.390;-3.266;2023-02-01T13:54:25;100982.13;;;14.52;52.55
23281;BME280;11809;56.390;-3.266;2023-02-01T13:56:53;100982.75;;;14.57;51.02
23281;BME280;11809;56.390;-3.266;2023-02-01T14:02:36;100984.47;;;14.58;49.52
23281;BME280;11809;56.390;-3.266;2023-02-01T14:05:04;100981.03;;;14.56;49.08
23281;BME280;11809;56.390;-3.266;2023-02-01T14:07:34;100988.81;;;14.59;48.25
23281;BME280;11809;56.390;-3.266;2023-02-01T14:40:00;101019.22;;;14.50;50.62
23281;BME280;11809;56.390;-3.266;2023-02-01T14:47:50;101028.72;;;14.37;48.12
23281;BME280;11809;56.390;-3.266;2023-02-01T14:59:06;101024.44;;;14.35;49.96
23281;BME280;11809;56.390;-3.266;2023-02-01T15:01:38;101033.00;;;14.40;50.46
23281;BME280;11809;56.390;-3.266;2023-02-01T15:04:15;101040.09;;;14.39;50.83
23281;BME280;11809;56.390;-3.266;2023-02-01T15:06:54;101037.44;;;14.39;51.21
23281;BME280;11809;56.390;-3.266;2023-02-01T15:15:41;101045.44;;;14.38;51.44
23281;BME280;11809;56.390;-3.266;2023-02-01T15:17:57;101048.03;;;14.39;51.34
23281;BME280;11809;56.390;-3.266;2023-02-01T15:20:35;101051.59;;;14.38;51.94
23281;BME280;11809;56.390;-3.266;2023-02-01T15:23:06;101067.34;;;14.40;51.75
23281;BME280;11809;56.390;-3.266;2023-02-01T15:25:37;101059.44;;;14.40;51.95
23281;BME280;11809;56.390;-3.266;2023-02-01T15:28:10;101062.06;;;14.40;51.97
23281;BME280;11809;56.390;-3.266;2023-02-01T15:30:39;101056.78;;;14.40;52.06
23281;BME280;11809;56.390;-3.266;2023-02-01T15:41:15;101067.63;;;13.98;47.88
23281;BME280;11809;56.390;-3.266;2023-02-01T15:46:31;101069.53;;;14.13;49.84
23281;BME280;11809;56.390;-3.266;2023-02-01T15:49:00;101070.31;;;14.15;50.39
23281;BME280;11809;56.390;-3.266;2023-02-01T15:51:29;101082.19;;;14.07;48.13
23281;BME280;11809;56.390;-3.266;2023-02-01T15:54:03;101076.91;;;13.88;46.79
23281;BME280;11809;56.390;-3.266;2023-02-01T15:56:36;101080.09;;;13.76;46.87
23281;BME280;11809;56.390;-3.266;2023-02-01T15:59:13;101086.47;;;13.72;46.12
23281;BME280;11809;56.390;-3.266;2023-02-01T16:01:41;101089.34;;;13.67;46.49
23281;BME280;11809;56.390;-3.266;2023-02-01T16:04:28;101085.88;;;13.65;46.40
23281;BME280;11809;56.390;-3.266;2023-02-01T16:07:01;101095.66;;;13.63;45.92
23281;BME280;11809;56.390;-3.266;2023-02-01T16:09:51;101095.88;;;13.59;45.79
23281;BME280;11809;56.390;-3.266;2023-02-01T16:14:58;101104.16;;;13.51;45.74
23281;BME280;11809;56.390;-3.266;2023-02-01T16:17:25;101109.50;;;13.50;45.90
23281;BME280;11809;56.390;-3.266;2023-02-01T16:19:52;101108.84;;;13.45;45.40
23281;BME280;11809;56.390;-3.266;2023-02-01T16:22:19;101108.97;;;13.42;45.71
23281;BME280;11809;56.390;-3.266;2023-02-01T16:24:46;101095.13;;;13.36;45.86